Meath Environmental Platform

Observations for Trim Market St

Time AQI Temp °C Hum % Pres Pa CO μg/m³ H₂S μg/m³ NO μg/m³ NO₂ μg/m³ O₃ μg/m³ SO₂ μg/m³ PM1 μg/m³ PM2.5 μg/m³ PM10 μg/m³
Tuesday 11 August 2026
23:17 2 22 51 56,116 0 0 1.3 22.71 56.68 0 0 1.88 2.07
23:16 2 22 51 56,267 0 0 1.29 20.29 55.29 0 0.71 3.43 4.57
23:15 2 22 51 56,456 0 0 1.27 17.55 64.7 0 2.14 4.46 6.05
23:14 2 22 51 56,366 0 0 1.27 18.9 57.18 0 0.71 2.92 3.09
23:13 2 22 51 56,585 0 0 1.26 12.4 64.3 0 2.14 3.94 4.57
23:12 2 22 51 56,494 0 0 1.26 19.92 54.67 0 1.43 2.92 3.09
23:11 2 22.1 51 56,681 0 0 1.26 16.56 59.36 0 1.43 3.44 3.83
23:10 2 22.1 51 56,679 0 0 1.29 14.09 63.56 0 2.14 4.47 5.31
23:08 2 22.1 51 56,647 0 0 1.28 15.11 60.12 0 0.71 2.93 3.09
23:07 2 22.1 51 56,618 0 0 1.29 19.51 61.51 0 0.71 3.44 3.83
23:06 2 22.1 51 56,592 0 0 1.32 18.46 60.21 0 0.71 2.93 3.08
23:02 2 22.2 50 56,562 0 0 1.38 23.81 59.18 0 0.71 3.46 3.81
22:52 2 22.4 50 57,984 0 0 1.28 19.93 60.65 0 0.71 3.48 3.8
22:51 2 22.4 50 58,167 0 0 1.29 28.4 56.06 0 1.43 4 4.54
22:50 2 22.4 50 58,418 0 0 1.3 13.15 59.8 0 1.43 4.01 6.03
22:49 2 22.4 50 58,396 0 0 1.3 22.58 55.8 0 0.71 4.01 4.54
22:47 2 22.5 50 58,671 0 0 1.29 18.46 58.79 0 0.71 3.5 5.29
22:46 2 22.5 50 58,781 0 0 1.3 22.87 57.82 0 1.43 4.02 4.54
22:45 2 22.5 50 59,059 0 0 1.29 28.25 54.48 0 1.43 3.51 3.78
22:42 2 22.6 49 59,772 0 0 1.28 15.42 60.72 0 1.43 4.03 4.53